Time;durP1;ratioP1;P1;durP2;ratioP2;P2;SDS_P1;SDS_P2;PMS_P1;PMS_P2;Temp;Humidity;BMP_temperature;BMP_pressure;BME280_temperature;BME280_humidity;BME280_pressure;Samples;Min_cycle;Max_cycle;Signal;HPM_P1;HPM_P2
2022/04/05 00:01:54;;;;;;;28.27;14.70;;;;;;;9.06;100.00;100491.94;5103827;28;20032;-56
2022/04/05 00:04:19;;;;;;;31.95;15.57;;;;;;;8.95;100.00;100480.66;5110168;28;20085;-57
2022/04/05 00:06:45;;;;;;;25.02;13.55;;;;;;;9.01;100.00;100485.31;5097823;28;20377;-56
2022/04/05 00:09:10;;;;;;;30.27;15.02;;;;;;;8.98;100.00;100490.91;5106246;28;20054;-57
2022/04/05 00:11:35;;;;;;;27.90;14.63;;;;;;;8.93;100.00;100487.91;5103706;28;20032;-56
2022/04/05 00:14:01;;;;;;;32.03;14.20;;;;;;;8.89;100.00;100486.59;5101711;28;20088;-57
2022/04/05 00:16:26;;;;;;;29.98;14.15;;;;;;;8.90;100.00;100488.25;5107901;28;20020;-56
2022/04/05 00:18:51;;;;;;;31.13;13.80;;;;;;;8.83;100.00;100481.94;5099549;28;20469;-56
2022/04/05 00:21:17;;;;;;;30.90;14.07;;;;;;;8.79;100.00;100491.19;5107755;28;20076;-57
2022/04/05 00:23:42;;;;;;;28.42;13.57;;;;;;;8.77;100.00;100488.69;5094647;28;20031;-55
2022/04/05 00:26:07;;;;;;;29.38;13.60;;;;;;;8.75;100.00;100496.75;5111588;28;20027;-56
2022/04/05 00:28:33;;;;;;;29.38;14.15;;;;;;;8.80;100.00;100493.66;5106713;28;20032;-57
2022/04/05 00:30:58;;;;;;;30.55;13.70;;;;;;;8.78;100.00;100494.81;5107275;28;20020;-56
2022/04/05 00:33:23;;;;;;;28.02;14.05;;;;;;;8.74;100.00;100495.09;5099799;28;20355;-57
2022/04/05 00:35:48;;;;;;;35.25;14.50;;;;;;;8.82;100.00;100493.47;5103476;28;20023;-56
2022/04/05 00:38:14;;;;;;;30.90;14.60;;;;;;;8.71;100.00;100490.16;5098814;28;20458;-56
2022/04/05 00:40:39;;;;;;;27.10;12.25;;;;;;;8.90;100.00;100493.53;5106906;28;20093;-56
2022/04/05 00:43:05;;;;;;;27.33;13.48;;;;;;;8.83;100.00;100490.69;5106782;28;20028;-56
2022/04/05 00:45:34;;;;;;;33.17;14.35;;;;;;;8.78;100.00;100489.53;5108375;28;20039;-57
2022/04/05 00:48:00;;;;;;;34.17;14.48;;;;;;;8.80;100.00;100498.13;5105897;28;20425;-56
2022/04/05 00:50:26;;;;;;;31.85;13.73;;;;;;;8.78;100.00;100492.16;5107265;28;20047;-57
2022/04/05 00:52:51;;;;;;;27.05;13.50;;;;;;;8.74;100.00;100499.59;5109545;28;20359;-56
2022/04/05 00:55:21;;;;;;;33.15;13.75;;;;;;;8.78;100.00;100489.53;5105552;28;20082;-57
2022/04/05 00:57:48;;;;;;;28.83;13.60;;;;;;;8.85;100.00;100495.81;5094314;28;20486;-57
2022/04/05 01:00:14;;;;;;;30.45;13.10;;;;;;;8.75;100.00;100496.75;5101930;28;20024;-57
2022/04/05 01:02:41;;;;;;;29.63;14.57;;;;;;;8.73;100.00;100496.09;5102882;28;20443;-55
2022/04/05 01:05:07;;;;;;;26.83;12.98;;;;;;;8.77;100.00;100493.16;5105513;28;20058;-56
2022/04/05 01:07:34;;;;;;;29.00;13.82;;;;;;;8.77;100.00;100499.25;5110881;28;20032;-57
2022/04/05 01:09:59;;;;;;;28.65;14.50;;;;;;;8.70;100.00;100499.06;5099597;28;20048;-57
2022/04/05 01:12:25;;;;;;;31.85;15.07;;;;;;;8.71;100.00;100502.53;5098010;28;20028;-56
2022/04/05 01:14:52;;;;;;;29.15;14.20;;;;;;;8.71;100.00;100495.44;5107533;28;20068;-57
2022/04/05 01:17:18;;;;;;;33.33;15.70;;;;;;;8.67;100.00;100504.66;5107104;28;20107;-58
2022/04/05 01:19:46;;;;;;;30.08;14.98;;;;;;;8.71;100.00;100489.31;5105227;28;20035;-57
2022/04/05 01:22:12;;;;;;;28.25;13.65;;;;;;;8.75;100.00;100496.75;5109733;28;20039;-57
2022/04/05 01:24:37;;;;;;;28.38;15.00;;;;;;;8.70;100.00;100499.06;5109142;28;20521;-56
2022/04/05 01:27:04;;;;;;;27.27;13.90;;;;;;;8.78;100.00;100500.91;5108306;28;20460;-57
2022/04/05 01:29:30;;;;;;;29.45;13.95;;;;;;;8.85;100.00;100506.41;5098501;28;20096;-56
2022/04/05 01:32:00;;;;;;;29.30;14.63;;;;;;;8.79;100.00;100501.75;5107589;28;20091;-57
2022/04/05 01:34:27;;;;;;;26.50;14.00;;;;;;;8.77;100.00;100498.44;5102723;28;20489;-56
2022/04/05 01:36:55;;;;;;;28.85;13.35;;;;;;;8.83;100.00;100508.38;5104448;28;20526;-56
2022/04/05 01:39:23;;;;;;;29.38;13.52;;;;;;;8.71;100.00;100511.31;5101617;28;20032;-56
2022/04/05 01:41:53;;;;;;;28.15;13.70;;;;;;;8.75;100.00;100511.81;5107462;28;20024;-57
2022/04/05 01:44:19;;;;;;;25.95;13.73;;;;;;;8.82;100.00;100512.00;5104000;28;20028;-56
2022/04/05 01:46:44;;;;;;;34.78;14.88;;;;;;;8.71;100.00;100513.94;5107211;28;20039;-56
2022/04/05 01:49:13;;;;;;;31.55;14.45;;;;;;;8.75;100.00;100512.63;5107421;28;20027;-57
2022/04/05 01:51:39;;;;;;;32.72;15.27;;;;;;;8.70;100.00;100514.94;5109304;28;20027;-57
2022/04/05 01:54:05;;;;;;;31.90;14.70;;;;;;;8.70;100.00;100508.81;5107612;28;20064;-55
2022/04/05 01:56:40;;;;;;;31.88;14.82;;;;;;;8.67;100.00;100499.38;5110851;28;20024;-57
2022/04/05 01:59:05;;;;;;;29.08;12.25;;;;;;;8.72;100.00;100512.97;5101745;28;20035;-57
2022/04/05 02:01:31;;;;;;;24.05;11.68;;;;;;;8.79;100.00;100507.03;5108478;28;20035;-56
2022/04/05 02:03:56;;;;;;;25.92;12.85;;;;;;;8.78;100.00;100505.38;5112211;28;20438;-56
2022/04/05 02:06:22;;;;;;;23.58;12.52;;;;;;;8.73;100.00;100509.31;5105443;28;20032;-57
2022/04/05 02:08:47;;;;;;;25.83;12.27;;;;;;;8.84;100.00;100510.03;5106032;27;20044;-57
2022/04/05 02:11:13;;;;;;;24.13;12.40;;;;;;;8.78;100.00;100502.75;5104235;28;20028;-55
2022/04/05 02:13:38;;;;;;;23.27;11.43;;;;;;;8.77;100.00;100515.13;5104485;28;20087;-55
2022/04/05 02:16:03;;;;;;;25.25;13.43;;;;;;;8.71;100.00;100511.31;5109658;28;20020;-56
2022/04/05 02:18:29;;;;;;;25.65;13.48;;;;;;;8.71;100.00;100515.75;5101416;28;20116;-57
2022/04/05 02:20:55;;;;;;;25.27;13.43;;;;;;;8.70;100.00;100512.28;5108679;28;20570;-56
2022/04/05 02:23:21;;;;;;;23.75;11.63;;;;;;;8.72;100.00;100518.25;5110997;28;20041;-57
2022/04/05 02:25:46;;;;;;;27.88;13.65;;;;;;;8.62;100.00;100514.88;5110553;28;20444;-57
2022/04/05 02:28:11;;;;;;;25.20;14.38;;;;;;;8.59;100.00;100512.56;5099030;28;20024;-56
2022/04/05 02:30:38;;;;;;;23.45;12.35;;;;;;;8.61;100.00;100515.88;5111016;28;20106;-55
2022/04/05 02:33:03;;;;;;;26.58;14.10;;;;;;;8.59;100.00;100517.84;5112291;28;20428;-55
2022/04/05 02:35:29;;;;;;;27.50;14.32;;;;;;;8.68;100.00;100516.06;5111419;28;20031;-56
2022/04/05 02:37:54;;;;;;;27.13;14.57;;;;;;;8.58;100.00;100516.16;5104653;27;20085;-57
2022/04/05 02:40:19;;;;;;;28.60;13.60;;;;;;;8.63;100.00;100518.34;5108816;28;20066;-56
2022/04/05 02:42:45;;;;;;;27.13;15.13;;;;;;;8.57;100.00;100515.34;5111010;28;20027;-57
2022/04/05 02:45:10;;;;;;;24.90;13.80;;;;;;;8.56;100.00;100518.13;5110958;28;20515;-57
2022/04/05 02:47:36;;;;;;;27.77;14.93;;;;;;;8.55;100.00;100521.78;5109472;27;20449;-56
2022/04/05 02:50:01;;;;;;;28.77;14.50;;;;;;;8.63;100.00;100507.78;5098452;28;20032;-55
2022/04/05 02:52:26;;;;;;;29.08;16.00;;;;;;;8.61;100.00;100515.88;5112143;28;20030;-57
2022/04/05 02:54:52;;;;;;;26.63;15.82;;;;;;;8.65;100.00;100509.28;5110515;28;20730;-56
2022/04/05 02:57:18;;;;;;;27.08;15.70;;;;;;;8.61;100.00;100511.41;5105694;28;20028;-56
2022/04/05 02:59:44;;;;;;;28.38;16.25;;;;;;;8.57;100.00;100512.72;5106513;28;20503;-56
2022/04/05 03:02:09;;;;;;;29.15;17.27;;;;;;;8.52;100.00;100506.22;5112014;28;20027;-57
2022/04/05 03:04:36;;;;;;;33.05;16.67;;;;;;;8.59;100.00;100507.28;5110651;28;20616;-56
2022/04/05 03:07:02;;;;;;;29.13;17.10;;;;;;;8.51;100.00;100505.38;5108858;28;20024;-57
2022/04/05 03:09:28;;;;;;;32.78;17.90;;;;;;;8.53;100.00;100502.63;5103390;28;20096;-57
2022/04/05 03:11:54;;;;;;;34.42;16.95;;;;;;;8.48;100.00;100508.31;5110836;28;20023;-56
2022/04/05 03:14:19;;;;;;;26.83;14.38;;;;;;;8.51;100.00;100510.66;5107909;28;20137;-56
2022/04/05 03:16:44;;;;;;;25.38;14.32;;;;;;;8.54;100.00;100514.84;5107920;28;20059;-57
2022/04/05 03:19:10;;;;;;;26.60;13.48;;;;;;;8.53;100.00;100513.19;5101041;28;20095;-55
2022/04/05 03:21:35;;;;;;;27.23;13.57;;;;;;;8.59;100.00;100517.84;5105102;28;20039;-57
2022/04/05 03:24:00;;;;;;;28.83;13.77;;;;;;;8.57;100.00;100519.78;5099054;28;20039;-57
2022/04/05 03:26:25;;;;;;;25.88;13.52;;;;;;;8.62;100.00;100506.94;5101662;28;20035;-57
2022/04/05 03:28:51;;;;;;;27.30;13.52;;;;;;;8.60;100.00;100519.50;5101412;28;20036;-57
2022/04/05 03:31:17;;;;;;;27.08;13.32;;;;;;;8.59;100.00;100512.56;5104697;28;20458;-56
2022/04/05 03:33:43;;;;;;;31.38;13.38;;;;;;;8.59;100.00;100512.56;5112647;28;20125;-57
2022/04/05 03:36:08;;;;;;;24.98;12.05;;;;;;;8.60;100.00;100508.94;5104745;28;20110;-57
2022/04/05 03:38:33;;;;;;;23.58;12.50;;;;;;;8.55;100.00;100505.91;5102674;28;20039;-56
2022/04/05 03:40:59;;;;;;;25.38;13.27;;;;;;;8.55;100.00;100511.19;5105680;28;20040;-57
2022/04/05 03:43:24;;;;;;;24.50;13.57;;;;;;;8.62;100.00;100512.22;5100837;28;20119;-57
2022/04/05 03:45:50;;;;;;;25.90;12.88;;;;;;;8.70;100.00;100504.38;5109063;28;20027;-57
2022/04/05 03:48:16;;;;;;;24.20;12.95;;;;;;;8.61;100.00;100503.50;5102363;28;20031;-57
2022/04/05 03:50:42;;;;;;;23.55;12.35;;;;;;;8.58;100.00;100510.88;5111404;28;20105;-56
2022/04/05 03:53:07;;;;;;;26.15;12.98;;;;;;;8.58;100.00;100506.44;5109608;28;20147;-56
2022/04/05 03:55:33;;;;;;;24.35;12.00;;;;;;;8.63;100.00;100505.94;5109955;28;20035;-57
2022/04/05 03:57:58;;;;;;;24.38;12.73;;;;;;;8.63;100.00;100508.59;5107537;28;20035;-56
2022/04/05 04:00:24;;;;;;;24.70;12.13;;;;;;;8.57;100.00;100502.13;5099846;28;20028;-56
2022/04/05 04:02:49;;;;;;;23.52;12.40;;;;;;;8.58;100.00;100511.72;5099380;28;20036;-58
2022/04/05 04:05:17;;;;;;;25.38;12.40;;;;;;;8.56;100.00;100502.28;5107929;28;20055;-57
2022/04/05 04:07:43;;;;;;;22.58;12.35;;;;;;;8.64;100.00;100505.00;5100342;28;20059;-57
2022/04/05 04:10:11;;;;;;;23.80;11.82;;;;;;;8.61;100.00;100500.84;5105765;28;20078;-56
2022/04/05 04:12:36;;;;;;;29.30;12.55;;;;;;;8.52;100.00;100500.94;5108967;28;20024;-57
2022/04/05 04:15:02;;;;;;;28.05;12.82;;;;;;;8.48;100.00;100501.22;5103049;28;20024;-57
2022/04/05 04:17:28;;;;;;;23.92;12.80;;;;;;;8.47;100.00;100499.56;5101484;28;20054;-56
2022/04/05 04:19:53;;;;;;;22.83;12.57;;;;;;;8.53;100.00;100502.63;5107050;28;20442;-56
2022/04/05 04:22:18;;;;;;;24.90;12.00;;;;;;;8.56;100.00;100508.41;5100470;28;20035;-56
2022/04/05 04:24:44;;;;;;;22.13;12.20;;;;;;;8.57;100.00;100510.06;5108066;28;20023;-57
2022/04/05 04:27:11;;;;;;;21.27;11.55;;;;;;;8.63;100.00;100503.31;5107497;28;20036;-56
2022/04/05 04:29:37;;;;;;;22.23;11.80;;;;;;;8.67;100.00;100488.81;5102988;28;20049;-57
2022/04/05 04:32:03;;;;;;;21.15;12.13;;;;;;;8.66;100.00;100507.47;5104691;28;20028;-56
2022/04/05 04:34:29;;;;;;;23.60;11.88;;;;;;;8.64;100.00;100496.22;5099640;28;20426;-57
2022/04/05 04:36:54;;;;;;;22.20;12.57;;;;;;;8.60;100.00;100503.63;5108185;28;20059;-57
2022/04/05 04:39:19;;;;;;;21.85;11.55;;;;;;;8.64;100.00;100505.00;5108098;28;20027;-55
2022/04/05 04:41:45;;;;;;;20.27;11.35;;;;;;;8.66;100.00;100510.94;5106538;27;20045;-56
2022/04/05 04:44:10;;;;;;;23.27;12.52;;;;;;;8.64;100.00;100509.44;5105417;28;20034;-56
2022/04/05 04:46:35;;;;;;;21.10;11.48;;;;;;;8.62;100.00;100501.66;5109010;28;20462;-56
2022/04/05 04:49:01;;;;;;;21.73;11.38;;;;;;;8.62;100.00;100512.22;5102394;28;20056;-55
2022/04/05 04:51:27;;;;;;;21.17;12.05;;;;;;;8.63;100.00;100508.59;5099311;28;20039;-56
2022/04/05 04:53:52;;;;;;;20.13;11.77;;;;;;;8.64;100.00;100510.28;5110157;28;20046;-54
2022/04/05 04:56:17;;;;;;;21.02;11.85;;;;;;;8.63;100.00;100510.44;5100891;28;20028;-57
2022/04/05 04:58:44;;;;;;;22.63;12.60;;;;;;;8.57;100.00;100506.56;5101662;28;20117;-55
2022/04/05 05:01:12;;;;;;;20.35;11.50;;;;;;;8.60;100.00;100511.56;5101001;28;20059;-55
2022/04/05 05:03:37;;;;;;;19.83;12.32;;;;;;;8.62;100.00;100517.50;5101669;28;20485;-56
2022/04/05 05:06:04;;;;;;;22.85;12.23;;;;;;;8.68;100.00;100516.88;5097795;28;20054;-56
2022/04/05 05:08:30;;;;;;;21.05;12.80;;;;;;;8.61;100.00;100513.22;5099338;28;20123;-56
2022/04/05 05:10:55;;;;;;;22.33;12.68;;;;;;;8.59;100.00;100508.09;5107977;28;20111;-56
2022/04/05 05:13:21;;;;;;;22.35;12.73;;;;;;;8.57;100.00;100509.22;5101797;28;20039;-56
2022/04/05 05:15:46;;;;;;;24.13;12.70;;;;;;;8.56;100.00;100518.97;5109489;28;20394;-56
2022/04/05 05:18:12;;;;;;;19.27;12.23;;;;;;;8.58;100.00;100516.16;5102142;28;20028;-56
2022/04/05 05:20:37;;;;;;;21.42;12.77;;;;;;;8.54;100.00;100512.19;5106781;28;20034;-59
2022/04/05 05:23:03;;;;;;;20.90;11.05;;;;;;;8.62;100.00;100517.50;5108631;28;20032;-59
2022/04/05 05:25:28;;;;;;;21.27;12.35;;;;;;;8.58;100.00;100522.28;5110286;28;20040;-58
2022/04/05 05:27:54;;;;;;;21.52;12.20;;;;;;;8.61;100.00;100521.16;5110336;28;20035;-58
2022/04/05 05:30:19;;;;;;;19.25;10.80;;;;;;;8.55;100.00;100521.78;5104411;28;20039;-58
2022/04/05 05:32:46;;;;;;;21.33;12.73;;;;;;;8.54;100.00;100525.41;5112098;28;20038;-58
2022/04/05 05:35:16;;;;;;;20.95;11.75;;;;;;;8.66;100.00;100523.31;5113622;28;20040;-59
2022/04/05 05:37:42;;;;;;;19.20;11.25;;;;;;;8.54;100.00;100520.94;5111124;28;20028;-59
2022/04/05 05:40:09;;;;;;;20.38;12.05;;;;;;;8.50;100.00;100524.03;5110588;28;20032;-58
2022/04/05 05:42:34;;;;;;;20.67;12.20;;;;;;;8.54;100.00;100522.75;5108458;28;20085;-58
2022/04/05 05:45:00;;;;;;;20.60;12.48;;;;;;;8.55;100.00;100524.41;5108266;28;20369;-58
2022/04/05 05:47:25;;;;;;;19.35;12.52;;;;;;;8.54;100.00;100526.22;5104175;28;20027;-58
2022/04/05 05:49:50;;;;;;;22.65;12.80;;;;;;;8.60;100.00;100530.06;5102987;28;20072;-58
2022/04/05 05:52:16;;;;;;;23.13;12.82;;;;;;;8.57;100.00;100536.50;5100580;28;20048;-59
2022/04/05 05:54:41;;;;;;;21.13;12.20;;;;;;;8.57;100.00;100540.94;5112388;27;20077;-58
2022/04/05 05:57:07;;;;;;;22.77;12.80;;;;;;;8.57;100.00;100538.28;5102227;28;20032;-59
2022/04/05 05:59:32;;;;;;;23.13;13.00;;;;;;;8.62;100.00;100543.94;5107088;28;20026;-59
2022/04/05 06:01:57;;;;;;;26.48;14.30;;;;;;;8.54;100.00;100547.38;5110762;28;20477;-59
2022/04/05 06:04:22;;;;;;;27.05;15.23;;;;;;;8.51;100.00;100546.81;5105558;28;20031;-58
2022/04/05 06:06:48;;;;;;;23.42;14.02;;;;;;;8.54;100.00;100551.84;5103392;28;20404;-58
2022/04/05 06:09:13;;;;;;;26.38;14.40;;;;;;;8.50;100.00;100550.44;5106625;28;20040;-54
2022/04/05 06:11:38;;;;;;;25.13;13.52;;;;;;;8.53;100.00;100545.72;5099496;28;20035;-56
2022/04/05 06:14:04;;;;;;;23.67;13.35;;;;;;;8.57;100.00;100544.41;5113447;28;20466;-55
2022/04/05 06:16:29;;;;;;;25.63;14.40;;;;;;;8.53;100.00;100547.53;5109958;28;20069;-55
2022/04/05 06:18:54;;;;;;;22.65;12.93;;;;;;;8.56;100.00;100555.16;5102103;28;20028;-55
2022/04/05 06:21:20;;;;;;;23.15;13.32;;;;;;;8.59;100.00;100554.84;5107170;28;20032;-55
2022/04/05 06:23:45;;;;;;;22.67;12.80;;;;;;;8.66;100.00;100552.41;5108012;28;20049;-56
2022/04/05 06:26:11;;;;;;;25.65;13.13;;;;;;;8.60;100.00;100553.84;5110567;28;20106;-53
2022/04/05 06:28:37;;;;;;;25.73;12.70;;;;;;;8.58;100.00;100558.44;5108619;28;20027;-55
2022/04/05 06:31:02;;;;;;;21.45;12.07;;;;;;;8.68;100.00;100561.81;5105677;28;20031;-59
2022/04/05 06:33:27;;;;;;;23.38;11.77;;;;;;;8.70;100.00;100561.69;5103622;28;20039;-56
2022/04/05 06:35:56;;;;;;;22.42;12.02;;;;;;;8.70;100.00;100565.16;5111603;28;20081;-55
2022/04/05 06:38:22;;;;;;;23.52;12.13;;;;;;;8.70;100.00;100567.81;5104179;28;20024;-53
2022/04/05 06:40:47;;;;;;;22.13;10.88;;;;;;;8.78;100.00;100568.84;5109992;28;20035;-53
2022/04/05 06:43:14;;;;;;;23.67;11.98;;;;;;;8.68;100.00;100563.66;5110483;28;20033;-55
2022/04/05 06:45:41;;;;;;;23.85;11.32;;;;;;;8.68;100.00;100567.13;5110514;28;20043;-56
2022/04/05 06:48:06;;;;;;;24.05;11.35;;;;;;;8.79;100.00;100567.84;5111346;27;20028;-55
2022/04/05 06:50:33;;;;;;;19.38;10.30;;;;;;;8.78;100.00;100574.94;5109076;28;20019;-56
2022/04/05 06:52:59;;;;;;;19.85;11.02;;;;;;;8.78;100.00;100576.78;5101891;28;20028;-55
2022/04/05 06:55:25;;;;;;;17.55;10.82;;;;;;;8.79;100.00;100575.78;5098233;28;20028;-56
2022/04/05 06:57:51;;;;;;;20.60;10.73;;;;;;;8.78;100.00;100574.13;5102148;28;20048;-55
2022/04/05 07:00:18;;;;;;;22.25;10.68;;;;;;;8.83;100.00;100582.44;5100846;28;20031;-55
2022/04/05 07:02:44;;;;;;;19.23;9.93;;;;;;;8.85;100.00;100585.72;5112971;28;20110;-55
2022/04/05 07:05:10;;;;;;;20.42;10.63;;;;;;;8.81;100.00;100581.72;5113797;28;20028;-56
2022/04/05 07:07:36;;;;;;;21.92;10.20;;;;;;;8.81;100.00;100590.50;5108047;28;20656;-56
2022/04/05 07:10:02;;;;;;;19.50;9.68;;;;;;;8.89;100.00;100587.09;5097867;28;20101;-56
2022/04/05 07:12:28;;;;;;;19.30;10.05;;;;;;;8.85;100.00;100588.38;5111930;28;20043;-56
2022/04/05 07:14:53;;;;;;;20.00;9.35;;;;;;;8.84;100.00;100586.72;5099334;28;20032;-56
2022/04/05 07:17:18;;;;;;;19.73;10.10;;;;;;;8.84;100.00;100594.66;5111538;28;20440;-55
2022/04/05 07:19:43;;;;;;;17.95;9.38;;;;;;;8.81;100.00;100587.00;5105044;28;20038;-56
2022/04/05 07:22:09;;;;;;;17.63;9.88;;;;;;;8.79;100.00;100589.00;5112381;28;20431;-57
2022/04/05 07:24:34;;;;;;;18.65;9.32;;;;;;;8.86;100.00;100587.38;5101412;28;20031;-55
2022/04/05 07:26:59;;;;;;;19.10;8.70;;;;;;;8.86;100.00;100584.75;5113031;28;20114;-56
2022/04/05 07:29:25;;;;;;;18.38;9.23;;;;;;;8.83;100.00;100583.22;5105258;28;20028;-56
2022/04/05 07:31:50;;;;;;;18.45;9.27;;;;;;;8.81;100.00;100584.38;5103600;28;20039;-55
2022/04/05 07:34:15;;;;;;;19.77;8.60;;;;;;;8.88;100.00;100578.31;5103551;28;20402;-56
2022/04/05 07:36:41;;;;;;;13.75;8.00;;;;;;;8.85;100.00;100578.63;5108032;28;20080;-56
2022/04/05 07:39:06;;;;;;;17.05;8.93;;;;;;;8.88;100.00;100580.09;5103329;28;20027;-57
2022/04/05 07:41:31;;;;;;;16.40;8.23;;;;;;;9.00;100.00;100578.88;5102630;28;20023;-55
2022/04/05 07:43:57;;;;;;;16.02;8.50;;;;;;;8.90;100.00;100582.59;5109979;28;20100;-56
2022/04/05 07:46:22;;;;;;;21.88;9.38;;;;;;;8.94;100.00;100574.19;5110331;28;20035;-56
2022/04/05 07:48:47;;;;;;;16.35;8.48;;;;;;;8.96;100.00;100579.34;5105236;28;20052;-55
2022/04/05 07:51:17;;;;;;;18.55;8.10;;;;;;;9.01;100.00;100580.53;5106872;28;20027;-55
2022/04/05 07:53:44;;;;;;;13.57;7.30;;;;;;;9.07;100.00;100586.19;5103919;28;20032;-56
2022/04/05 07:56:12;;;;;;;14.82;7.97;;;;;;;9.02;100.00;100586.63;5107497;28;20037;-55
2022/04/05 07:58:39;;;;;;;15.18;7.93;;;;;;;9.02;100.00;100584.84;5107360;28;20089;-57
2022/04/05 08:01:04;;;;;;;14.60;7.43;;;;;;;9.02;100.00;100592.78;5108671;28;20051;-56
2022/04/05 08:03:29;;;;;;;11.48;7.50;;;;;;;9.00;100.00;100592.09;5100617;28;20054;-56
2022/04/05 08:05:54;;;;;;;15.77;8.00;;;;;;;9.06;100.00;100587.16;5110458;28;20031;-60
2022/04/05 08:08:20;;;;;;;16.48;8.38;;;;;;;9.10;100.00;100588.50;5109372;28;20020;-57
2022/04/05 08:10:45;;;;;;;15.25;7.47;;;;;;;9.12;100.00;100591.81;5103614;28;20027;-57
2022/04/05 08:13:11;;;;;;;16.10;7.60;;;;;;;9.13;100.00;100582.91;5095776;28;20034;-58
2022/04/05 08:15:39;;;;;;;16.73;8.32;;;;;;;9.12;100.00;100586.50;5107962;28;20481;-55
2022/04/05 08:18:05;;;;;;;17.42;7.90;;;;;;;9.14;100.00;100590.66;5099485;28;20063;-58
2022/04/05 08:20:30;;;;;;;15.60;7.78;;;;;;;9.12;100.00;100587.34;5101004;28;20505;-59
2022/04/05 08:22:55;;;;;;;12.27;6.45;;;;;;;9.23;100.00;100594.19;5101010;28;20028;-58
2022/04/05 08:25:21;;;;;;;15.07;7.55;;;;;;;9.29;100.00;100588.25;5102871;28;20050;-59
2022/04/05 08:27:48;;;;;;;13.02;7.50;;;;;;;9.29;100.00;100592.72;5101412;28;20112;-60
2022/04/05 08:30:15;;;;;;;15.45;8.55;;;;;;;9.26;100.00;100596.53;5105050;28;20035;-59
2022/04/05 08:32:42;;;;;;;13.65;7.20;;;;;;;9.36;100.00;100598.19;5109207;28;20096;-59
2022/04/05 08:35:13;;;;;;;13.05;7.07;;;;;;;9.25;100.00;100596.69;5105495;28;20102;-60
2022/04/05 08:37:39;;;;;;;16.77;8.10;;;;;;;9.28;100.00;100597.19;5104647;28;20533;-59
2022/04/05 08:40:07;;;;;;;12.70;7.22;;;;;;;9.41;100.00;100590.63;5097528;28;20032;-60
2022/04/05 08:42:34;;;;;;;15.05;7.32;;;;;;;9.42;100.00;100592.25;5109959;28;20024;-59
2022/04/05 08:45:01;;;;;;;12.25;7.60;;;;;;;9.35;100.00;100585.97;5106681;28;20040;-59
2022/04/05 08:47:29;;;;;;;12.95;7.20;;;;;;;9.48;100.00;100596.09;5105129;28;20083;-60
2022/04/05 08:49:54;;;;;;;13.05;7.03;;;;;;;9.58;100.00;100609.22;5103762;28;20031;-59
2022/04/05 08:52:20;;;;;;;11.23;6.78;;;;;;;9.54;100.00;100598.91;5105470;28;20040;-59
2022/04/05 08:54:45;;;;;;;11.75;6.55;;;;;;;9.53;100.00;100604.41;5099538;28;20494;-61
2022/04/05 08:57:10;;;;;;;14.70;7.70;;;;;;;9.60;99.97;100607.22;5107335;28;20042;-61
2022/04/05 08:59:36;;;;;;;12.32;6.85;;;;;;;9.52;100.00;100606.22;5110154;28;20087;-61
2022/04/05 09:02:01;;;;;;;13.98;6.95;;;;;;;9.60;99.75;100609.88;5113341;28;20023;-61
2022/04/05 09:04:32;;;;;;;14.43;6.70;;;;;;;9.64;99.86;100608.56;5103172;28;20028;-61
2022/04/05 09:07:17;;;;;;;13.05;7.45;;;;;;;9.63;100.00;100609.56;5111236;28;20496;-61
2022/04/05 09:09:43;;;;;;;12.77;6.35;;;;;;;9.66;100.00;100614.50;5109127;28;20133;-61
2022/04/05 09:12:16;;;;;;;13.90;7.43;;;;;;;9.54;100.00;100590.97;5109524;28;20061;-61
2022/04/05 09:14:42;;;;;;;13.27;7.53;;;;;;;9.65;100.00;100612.88;5105718;28;20036;-61
2022/04/05 09:17:10;;;;;;;17.88;7.90;;;;;;;9.71;100.00;100609.56;5107300;28;20038;-61
2022/04/05 09:19:49;;;;;;;15.32;6.80;;;;;;;9.72;100.00;100608.56;5103405;28;20068;-61
2022/04/05 09:22:15;;;;;;;14.90;7.55;;;;;;;9.77;100.00;100616.88;5111059;28;20035;-61
2022/04/05 09:24:45;;;;;;;14.93;8.00;;;;;;;9.76;100.00;100620.50;5109567;28;20036;-61
2022/04/05 09:27:10;;;;;;;16.40;8.40;;;;;;;9.75;100.00;100618.84;5109298;28;20469;-61
2022/04/05 09:29:43;;;;;;;14.70;8.05;;;;;;;9.75;100.00;100618.84;5101520;28;20149;-61
2022/04/05 09:32:08;;;;;;;11.15;7.25;;;;;;;9.75;100.00;100624.16;5101201;28;20059;-61
2022/04/05 09:34:48;;;;;;;15.80;8.35;;;;;;;9.82;100.00;100624.34;5104432;28;20407;-61
2022/04/05 09:37:14;;;;;;;16.75;8.60;;;;;;;9.82;100.00;100627.81;5111952;28;20114;-61
2022/04/05 09:39:39;;;;;;;14.43;8.57;;;;;;;9.75;100.00;100629.44;5103349;28;20119;-61
2022/04/05 09:42:08;;;;;;;14.25;8.40;;;;;;;9.82;100.00;100633.09;5101888;28;20028;-61
2022/04/05 09:44:38;;;;;;;16.33;8.25;;;;;;;9.87;100.00;100631.81;5108893;28;20474;-61
2022/04/05 09:47:18;;;;;;;19.73;9.10;;;;;;;9.89;100.00;100630.66;5107891;28;20419;-61
2022/04/05 09:49:46;;;;;;;16.92;8.95;;;;;;;9.74;100.00;100617.19;5105947;28;20028;-61
2022/04/05 09:52:32;;;;;;;16.02;9.07;;;;;;;9.97;100.00;100632.50;5112878;27;20035;-61
2022/04/05 09:55:13;;;;;;;16.60;8.50;;;;;;;9.95;100.00;100632.66;5113095;28;20032;-61
2022/04/05 09:57:38;;;;;;;13.48;8.60;;;;;;;9.87;100.00;100631.81;5111207;28;20761;-61
2022/04/05 10:00:13;;;;;;;14.98;8.60;;;;;;;9.88;100.00;100633.44;5109827;28;20024;-61
2022/04/05 10:02:59;;;;;;;17.17;8.27;;;;;;;9.91;100.00;100627.81;5104521;28;20032;-61
2022/04/05 10:05:26;;;;;;;13.43;8.15;;;;;;;9.83;100.00;100632.09;5102304;28;20516;-61
2022/04/05 10:07:52;;;;;;;14.23;7.05;;;;;;;9.96;100.00;100636.09;5102452;28;20039;-61
2022/04/05 10:10:19;;;;;;;12.88;8.07;;;;;;;9.87;100.00;100631.81;5110347;28;20044;-61
2022/04/05 10:12:47;;;;;;;11.25;7.65;;;;;;;9.85;100.00;100623.16;5111290;28;20055;-61
2022/04/05 10:15:13;;;;;;;14.05;7.40;;;;;;;9.86;100.00;100633.59;5105461;28;20127;-61
2022/04/05 10:17:43;;;;;;;13.90;7.40;;;;;;;9.95;100.00;100635.28;5100507;28;20106;-61
2022/04/05 10:20:09;;;;;;;10.45;6.38;;;;;;;10.00;100.00;100639.25;5102290;28;20028;-61
2022/04/05 10:22:37;;;;;;;12.65;7.18;;;;;;;10.02;100.00;100640.75;5103911;28;20032;-61
2022/04/05 10:25:03;;;;;;;12.18;6.93;;;;;;;10.16;100.00;100631.34;5106199;28;20038;-61
2022/04/05 10:27:29;;;;;;;12.95;7.18;;;;;;;10.25;100.00;100631.38;5099025;28;20031;-61
2022/04/05 10:30:24;;;;;;;10.77;6.60;;;;;;;10.47;100.00;100635.22;5106384;28;20039;-61
2022/04/05 10:33:03;;;;;;;14.18;6.97;;;;;;;10.35;100.00;100629.38;5100139;28;20043;-61
2022/04/05 10:35:30;;;;;;;11.63;6.90;;;;;;;10.43;99.62;100631.22;5103129;28;20035;-61
2022/04/05 10:38:13;;;;;;;11.30;6.53;;;;;;;10.53;98.73;100631.91;5104448;28;20032;-61
2022/04/05 10:40:39;;;;;;;;;;;;;;;10.66;97.66;100635.88;5099919;28;20036;-61
2022/04/05 10:43:19;;;;;;;12.43;6.38;;;;;;;10.52;98.20;100630.25;5102670;28;20350;-61
2022/04/05 10:45:45;;;;;;;11.00;6.53;;;;;;;10.37;98.63;100632.69;5104820;28;20054;-61
2022/04/05 10:48:17;;;;;;;10.75;6.07;;;;;;;10.33;98.11;100626.91;5105472;28;20027;-61
2022/04/05 10:51:05;;;;;;;12.50;6.57;;;;;;;10.43;98.64;100631.22;5103720;28;20058;-61
2022/04/05 10:53:35;;;;;;;11.05;6.05;;;;;;;10.59;97.33;100630.38;5103730;28;20158;-61
2022/04/05 10:56:04;;;;;;;10.50;6.18;;;;;;;10.53;98.10;100631.06;5098443;28;20039;-61
2022/04/05 10:58:35;;;;;;;12.02;6.10;;;;;;;10.50;98.43;100632.22;5104069;28;20128;-61
2022/04/05 11:01:16;;;;;;;10.88;6.10;;;;;;;10.57;97.08;100627.91;5102026;28;20066;-61
2022/04/05 11:03:41;;;;;;;9.90;5.55;;;;;;;10.56;96.24;100626.25;5108946;28;20084;-61
2022/04/05 11:06:07;;;;;;;10.38;5.70;;;;;;;10.57;97.07;100616.47;5105445;28;20123;-61
2022/04/05 11:08:33;;;;;;;7.88;4.53;;;;;;;10.80;93.52;100624.56;5102228;28;20165;-61
2022/04/05 11:11:04;;;;;;;8.93;5.13;;;;;;;10.71;94.73;100623.75;5101996;28;20040;-61